Pagrindinis puslapis
METAR-TAF:

METAR-TAF

Oro uostai :

Vidsel, Švedija

platuma: 65-52N, ilguma: 020-08E, Aukštis: 180 m

Dabartinis oras

Ataskaita buvo paskelbta 42 minutes, ne 11:50 UTC
Vėjas 5 kt iš Šiaurės, svyruoja nuo Šiaurės Vakarų ir Šiaurės/Šiaurės Rytų
Temperatūra 16°C
Drėgmė 55%
Slėgis 1016 hPa
Matomumas 10 km arba daugiau
Mažai debesys ne aukštis 4500 ft
Su prošvaistėmis ne aukštis 6800 ft

METAR: ESPE 221150Z 35005KT 310V030 9999 FEW045 BKN068 16/07 Q1016

Laikas: 14:32 (12:32 UTC)

Prognozė

Ataskaita buvo paskelbta 1 valandą ir 2 minutes, ne 11:30 UTC
Prognozė galioja nuo 22 metu 12 UTC su 22 metu 14 UTC
Vėjas 5 kt iš Šiaurės Vakarų
Matomumas 10 km arba daugiau
Išsisklaidę debesys ne aukštis 4500 ft, aukštai iškilę kamuoliniai debesys.

TAF: ESPE 221130Z 2212/2214 31005KT 9999 SCT045TCU RMK MIL

Orai ataskaitas ir orų prognozės (METAR, TAF).

turimą stotys yra geltonos ir raudonos taškus žemėlapyje.

Perkelti pele per norėdami pamatyti stoties vardą.

Tada spustelėkite, norėdami matyti oro stebėjimo ir prognozės.

Norėdami pakeisti žemėlapį: spustelėkite ant žalios mygtukų su juodo kryžiaus žemyn,; žalią mygtuką su brūkšneliu, jei norite nutolinti; arba žalių rodyklių gretimoms žemėlapius.


METAR-TAF: